createdAt,value
2022-07-31T00:00:53.096Z,16.00
2022-07-31T00:03:21.844Z,16.00
2022-07-31T00:05:50.676Z,16.00
2022-07-31T00:08:20.594Z,16.00
2022-07-31T00:10:49.254Z,16.00
2022-07-31T00:13:17.946Z,16.00
2022-07-31T00:15:46.608Z,15.90
2022-07-31T00:18:15.321Z,15.90
2022-07-31T00:20:44.667Z,15.90
2022-07-31T00:23:13.312Z,16.00
2022-07-31T00:25:49.171Z,16.00
2022-07-31T00:28:17.797Z,16.00
2022-07-31T00:30:46.760Z,16.00
2022-07-31T00:33:15.734Z,16.00
2022-07-31T00:35:44.511Z,16.00
2022-07-31T00:38:28.587Z,16.00
2022-07-31T00:40:59.796Z,16.10
2022-07-31T00:43:30.914Z,16.10
2022-07-31T00:45:59.701Z,16.10
2022-07-31T00:48:28.484Z,16.10
2022-07-31T00:50:58.322Z,16.00
2022-07-31T00:53:26.896Z,16.00
2022-07-31T00:55:57.372Z,16.10
2022-07-31T00:58:27.374Z,16.00
2022-07-31T01:00:56.042Z,16.00
2022-07-31T01:03:24.837Z,16.00
2022-07-31T01:05:53.490Z,16.00
2022-07-31T01:08:22.043Z,16.00
2022-07-31T01:10:57.386Z,16.00
2022-07-31T01:16:21.583Z,16.00
2022-07-31T01:18:52.493Z,16.00
2022-07-31T01:21:30.023Z,16.10
2022-07-31T01:24:22.764Z,16.00
2022-07-31T01:27:26.899Z,16.00
2022-07-31T01:30:02.784Z,16.00
2022-07-31T01:32:38.718Z,16.00
2022-07-31T01:35:16.843Z,16.00
2022-07-31T01:37:51.764Z,16.00
2022-07-31T01:40:27.066Z,16.00
2022-07-31T01:43:02.040Z,16.00
2022-07-31T01:45:34.468Z,16.00
2022-07-31T01:48:04.015Z,16.00
2022-07-31T01:50:42.343Z,15.90
2022-07-31T01:53:15.179Z,15.90
2022-07-31T01:56:02.798Z,15.90
2022-07-31T01:58:37.466Z,15.90
2022-07-31T02:01:14.668Z,15.90
2022-07-31T02:03:45.678Z,15.90
2022-07-31T02:06:20.461Z,15.90
2022-07-31T02:08:51.900Z,15.80
2022-07-31T02:11:22.542Z,15.80
2022-07-31T02:13:53.268Z,15.80
2022-07-31T02:16:25.886Z,15.80
2022-07-31T02:19:03.926Z,15.80
2022-07-31T02:21:32.834Z,15.80
2022-07-31T02:24:01.453Z,15.80
2022-07-31T02:26:32.986Z,15.80
2022-07-31T02:29:03.765Z,15.80
2022-07-31T02:31:35.953Z,15.80
2022-07-31T02:34:05.735Z,15.70
2022-07-31T02:36:35.803Z,15.70
2022-07-31T02:39:06.167Z,15.70
2022-07-31T02:41:36.792Z,15.70
2022-07-31T02:44:06.488Z,15.70
2022-07-31T02:46:38.213Z,15.70
2022-07-31T02:49:07.945Z,15.70
2022-07-31T02:51:42.570Z,15.70
2022-07-31T02:54:12.654Z,15.70
2022-07-31T02:56:43.136Z,15.70
2022-07-31T02:59:11.786Z,15.70
2022-07-31T03:02:00.358Z,15.60
2022-07-31T03:04:31.605Z,15.60
2022-07-31T03:07:00.698Z,15.60
2022-07-31T03:09:30.707Z,15.60
2022-07-31T03:12:32.311Z,15.60
2022-07-31T03:15:02.276Z,15.60
2022-07-31T03:17:38.429Z,15.60
2022-07-31T03:20:13.469Z,15.60
2022-07-31T03:22:43.376Z,15.60
2022-07-31T03:25:21.127Z,15.60
2022-07-31T03:27:56.265Z,15.60
2022-07-31T03:30:26.448Z,15.60
2022-07-31T03:33:02.627Z,15.60
2022-07-31T03:35:34.070Z,15.50
2022-07-31T03:38:38.304Z,15.60
2022-07-31T03:40:58.118Z,15.50
2022-07-31T03:43:28.527Z,15.50
2022-07-31T03:46:14.342Z,15.50
2022-07-31T03:48:45.104Z,15.50
2022-07-31T03:51:15.039Z,15.50
2022-07-31T03:53:44.785Z,15.50
2022-07-31T03:56:30.469Z,15.50
2022-07-31T03:58:59.538Z,15.50
2022-07-31T04:01:56.703Z,15.50
2022-07-31T04:04:32.239Z,15.50
2022-07-31T04:07:03.800Z,15.50
2022-07-31T04:09:32.834Z,15.50
2022-07-31T04:12:02.487Z,15.50
2022-07-31T04:14:32.157Z,15.50
2022-07-31T04:17:01.219Z,15.50
2022-07-31T04:19:32.763Z,15.50
2022-07-31T04:22:02.839Z,15.60
2022-07-31T04:24:33.502Z,15.60
2022-07-31T04:27:18.685Z,15.60
2022-07-31T04:29:49.334Z,15.60
2022-07-31T04:32:18.362Z,15.60
2022-07-31T04:34:56.119Z,15.60
2022-07-31T04:37:24.864Z,15.70
2022-07-31T04:39:54.201Z,15.70
2022-07-31T04:42:23.030Z,15.70
2022-07-31T04:44:52.047Z,15.70
2022-07-31T04:47:23.041Z,15.80
2022-07-31T04:49:53.486Z,15.70
2022-07-31T04:52:24.304Z,15.80
2022-07-31T04:54:53.059Z,15.80
2022-07-31T04:57:22.336Z,15.80
2022-07-31T05:00:00.418Z,15.90
2022-07-31T05:02:32.545Z,15.90
2022-07-31T05:05:01.623Z,16.00
2022-07-31T05:07:38.656Z,16.00
2022-07-31T05:10:34.477Z,16.00
2022-07-31T05:13:04.231Z,16.10
2022-07-31T05:15:34.925Z,16.10
2022-07-31T05:18:04.496Z,16.10
2022-07-31T05:20:56.574Z,16.10
2022-07-31T05:23:53.071Z,16.10
2022-07-31T05:26:40.091Z,16.10
2022-07-31T05:29:09.013Z,16.10
2022-07-31T05:31:38.269Z,16.10
2022-07-31T05:34:26.947Z,16.10
2022-07-31T05:37:01.190Z,16.20
2022-07-31T05:39:33.502Z,16.20
2022-07-31T05:42:20.602Z,16.20
2022-07-31T05:45:01.306Z,16.20
2022-07-31T05:47:39.977Z,16.30
2022-07-31T05:50:10.757Z,16.40
2022-07-31T05:52:39.837Z,16.50
2022-07-31T05:55:18.674Z,16.40
2022-07-31T05:58:13.574Z,16.40
2022-07-31T06:00:47.449Z,16.40
2022-07-31T06:03:16.875Z,16.40
2022-07-31T06:06:02.652Z,16.40
2022-07-31T06:08:31.708Z,16.40
2022-07-31T06:11:02.197Z,16.50
2022-07-31T06:13:31.294Z,16.50
2022-07-31T06:16:13.810Z,16.50
2022-07-31T06:18:43.942Z,16.60
2022-07-31T06:23:40.752Z,16.70
2022-07-31T06:26:34.901Z,16.60
2022-07-31T06:29:04.022Z,16.70
2022-07-31T06:31:33.069Z,16.70
2022-07-31T06:34:01.900Z,16.80
2022-07-31T06:36:39.607Z,17.00
2022-07-31T06:39:10.868Z,17.00
2022-07-31T06:41:49.755Z,17.20
2022-07-31T06:44:30.719Z,17.40
2022-07-31T06:47:18.427Z,17.50
2022-07-31T06:50:06.695Z,17.40
2022-07-31T06:52:39.495Z,17.50
2022-07-31T06:55:09.165Z,17.60
2022-07-31T06:57:40.114Z,17.60
2022-07-31T07:00:15.183Z,17.60
2022-07-31T07:02:49.192Z,17.60
2022-07-31T07:05:18.144Z,17.60
2022-07-31T07:07:49.969Z,17.80
2022-07-31T07:10:18.646Z,17.90
2022-07-31T07:13:03.478Z,17.90
2022-07-31T07:15:36.686Z,18.10
2022-07-31T07:18:05.984Z,18.20
2022-07-31T07:20:48.861Z,17.90
2022-07-31T07:23:18.378Z,17.80
2022-07-31T07:26:05.883Z,17.60
2022-07-31T07:28:36.666Z,17.70
2022-07-31T07:31:10.524Z,17.70
2022-07-31T07:33:42.507Z,17.80
2022-07-31T07:36:24.794Z,17.70
2022-07-31T07:38:59.573Z,17.80
2022-07-31T07:41:28.463Z,18.00
2022-07-31T07:43:58.493Z,18.00
2022-07-31T07:46:30.512Z,17.90
2022-07-31T07:49:02.955Z,18.00
2022-07-31T07:51:59.857Z,17.90
2022-07-31T07:54:43.223Z,17.90
2022-07-31T07:57:38.235Z,17.90
2022-07-31T08:00:27.353Z,17.90
2022-07-31T08:03:47.149Z,18.10
2022-07-31T08:05:50.586Z,18.20
2022-07-31T08:08:19.632Z,18.40
2022-07-31T08:10:48.497Z,18.30
2022-07-31T08:13:24.963Z,18.40
2022-07-31T08:16:13.900Z,18.50
2022-07-31T08:18:45.146Z,18.50
2022-07-31T08:21:13.877Z,18.80
2022-07-31T08:23:42.562Z,18.90
2022-07-31T08:26:11.676Z,19.10
2022-07-31T08:28:50.200Z,19.40
2022-07-31T08:31:21.849Z,19.40
2022-07-31T08:34:30.999Z,19.30
2022-07-31T08:37:59.949Z,19.40
2022-07-31T08:39:53.334Z,19.70
2022-07-31T08:42:21.958Z,19.70
2022-07-31T08:44:50.571Z,19.70
2022-07-31T08:47:26.327Z,19.60
2022-07-31T08:49:57.329Z,19.70
2022-07-31T08:52:27.801Z,19.80
2022-07-31T08:55:54.933Z,19.90
2022-07-31T08:58:08.820Z,20.10
2022-07-31T09:00:37.599Z,20.00
2022-07-31T09:03:08.039Z,20.00
2022-07-31T09:05:52.308Z,20.20
2022-07-31T09:08:21.809Z,20.40
2022-07-31T09:11:06.039Z,20.60
2022-07-31T09:13:39.300Z,20.40
2022-07-31T09:16:30.690Z,20.40
2022-07-31T09:19:03.173Z,20.60
2022-07-31T09:21:52.584Z,20.60
2022-07-31T09:24:29.456Z,20.60
2022-07-31T09:27:06.070Z,20.60
2022-07-31T09:29:40.482Z,20.70
2022-07-31T09:32:18.122Z,20.80
2022-07-31T09:35:14.275Z,20.70
2022-07-31T09:37:48.371Z,20.80
2022-07-31T09:40:41.174Z,21.10
2022-07-31T09:43:56.468Z,21.50
2022-07-31T09:46:26.624Z,21.20
2022-07-31T09:49:00.102Z,21.10
2022-07-31T09:51:41.011Z,21.20
2022-07-31T09:54:22.117Z,21.50
2022-07-31T09:56:53.950Z,21.30
2022-07-31T09:59:26.631Z,21.70
2022-07-31T10:01:56.276Z,21.90
2022-07-31T10:04:25.965Z,22.20
2022-07-31T10:06:57.582Z,22.10
2022-07-31T10:09:28.288Z,21.60
2022-07-31T10:12:29.932Z,21.40
2022-07-31T10:15:05.747Z,21.60
2022-07-31T10:17:41.057Z,21.60
2022-07-31T10:20:38.988Z,21.80
2022-07-31T10:23:34.704Z,22.20
2022-07-31T10:26:05.760Z,22.20
2022-07-31T10:28:37.662Z,22.60
2022-07-31T10:31:07.008Z,22.80
2022-07-31T10:33:44.932Z,22.50
2022-07-31T10:36:36.420Z,22.40
2022-07-31T10:39:28.465Z,22.50
2022-07-31T10:42:14.156Z,22.80
2022-07-31T10:44:49.697Z,23.10
2022-07-31T10:47:21.073Z,23.10
2022-07-31T10:50:23.047Z,23.20
2022-07-31T10:53:10.938Z,23.50
2022-07-31T10:56:03.453Z,23.70
2022-07-31T10:58:51.270Z,23.80
2022-07-31T11:01:52.877Z,23.80
2022-07-31T11:05:11.300Z,23.80
2022-07-31T11:08:02.831Z,24.00
2022-07-31T11:10:53.476Z,24.20
2022-07-31T11:13:46.628Z,24.20
2022-07-31T11:16:23.969Z,24.20
2022-07-31T11:19:09.640Z,24.10
2022-07-31T11:21:40.750Z,23.70
2022-07-31T11:24:16.689Z,23.90
2022-07-31T11:26:55.945Z,24.00
2022-07-31T11:29:58.625Z,24.00
2022-07-31T11:32:24.763Z,24.00
2022-07-31T11:34:56.335Z,24.20
2022-07-31T11:37:26.655Z,24.10
2022-07-31T11:40:09.223Z,24.10
2022-07-31T11:42:46.189Z,24.20
2022-07-31T11:45:17.241Z,24.30
2022-07-31T11:48:11.121Z,24.20
2022-07-31T11:50:41.338Z,24.40
2022-07-31T11:53:10.647Z,24.50
2022-07-31T11:55:47.024Z,24.90
2022-07-31T11:58:16.699Z,25.20
2022-07-31T12:00:54.999Z,25.40
2022-07-31T12:03:25.269Z,25.10
2022-07-31T12:05:54.666Z,25.00
2022-07-31T12:08:24.487Z,25.40
2022-07-31T12:10:54.100Z,25.30
2022-07-31T12:13:24.527Z,25.20
2022-07-31T12:15:59.989Z,25.30
2022-07-31T12:18:30.305Z,25.40
2022-07-31T12:21:01.272Z,25.70
2022-07-31T12:23:41.906Z,25.70
2022-07-31T12:26:14.355Z,25.60
2022-07-31T12:28:43.943Z,25.40
2022-07-31T12:31:13.968Z,25.30
2022-07-31T12:33:44.072Z,25.50
2022-07-31T12:36:14.228Z,25.30
2022-07-31T12:38:45.560Z,25.50
2022-07-31T12:41:17.963Z,25.40
2022-07-31T12:43:51.254Z,25.50
2022-07-31T12:46:24.222Z,25.50
2022-07-31T12:48:52.895Z,25.20
2022-07-31T12:51:45.135Z,25.00
2022-07-31T12:54:10.505Z,25.00
2022-07-31T12:56:40.069Z,25.10
2022-07-31T12:59:09.788Z,25.40
2022-07-31T13:01:40.609Z,25.40
2022-07-31T13:04:18.287Z,25.60
2022-07-31T13:06:52.111Z,25.70
2022-07-31T13:09:21.548Z,25.50
2022-07-31T13:11:55.881Z,25.40
2022-07-31T13:14:26.653Z,25.30
2022-07-31T13:16:57.436Z,25.40
2022-07-31T13:19:26.372Z,25.40
2022-07-31T13:21:56.966Z,25.50
2022-07-31T13:24:26.344Z,25.70
2022-07-31T13:26:55.421Z,25.80
2022-07-31T13:29:23.993Z,25.50
2022-07-31T13:31:52.722Z,25.70
2022-07-31T13:34:22.656Z,25.90
2022-07-31T13:36:51.326Z,25.90
2022-07-31T13:39:19.918Z,25.90
2022-07-31T13:41:48.511Z,25.80
2022-07-31T13:44:17.098Z,25.60
2022-07-31T13:46:46.649Z,25.70
2022-07-31T13:49:15.717Z,25.80
2022-07-31T13:51:46.577Z,25.80
2022-07-31T13:54:16.502Z,25.70
2022-07-31T13:56:45.152Z,25.70
2022-07-31T13:59:14.346Z,25.60
2022-07-31T14:02:13.568Z,25.60
2022-07-31T14:04:38.331Z,25.80
2022-07-31T14:07:09.766Z,25.80
2022-07-31T14:09:54.626Z,25.90
2022-07-31T14:12:24.338Z,26.00
2022-07-31T14:14:53.118Z,26.00
2022-07-31T14:17:21.806Z,26.00
2022-07-31T14:19:50.462Z,26.10
2022-07-31T14:22:20.487Z,26.00
2022-07-31T14:24:51.493Z,25.80
2022-07-31T14:27:21.905Z,25.80
2022-07-31T14:29:50.899Z,25.90
2022-07-31T14:32:21.911Z,26.10
2022-07-31T14:34:50.631Z,26.20
2022-07-31T14:37:21.125Z,26.20
2022-07-31T14:39:49.982Z,26.20
2022-07-31T14:42:22.356Z,26.10
2022-07-31T14:44:54.624Z,26.10
2022-07-31T14:47:23.211Z,26.00
2022-07-31T14:50:08.012Z,26.00
2022-07-31T14:52:40.729Z,26.20
2022-07-31T14:55:10.361Z,26.30
2022-07-31T14:57:39.181Z,26.20
2022-07-31T15:00:12.888Z,25.90
2022-07-31T15:02:42.090Z,25.70
2022-07-31T15:06:41.397Z,25.80
2022-07-31T15:08:02.656Z,25.90
2022-07-31T15:10:33.127Z,25.70
2022-07-31T15:13:01.732Z,25.50
2022-07-31T15:15:31.031Z,25.40
2022-07-31T15:18:02.819Z,25.50
2022-07-31T15:20:33.156Z,25.60
2022-07-31T15:23:03.756Z,25.70
2022-07-31T15:25:32.530Z,25.70
2022-07-31T15:28:01.132Z,25.70
2022-07-31T15:30:29.759Z,25.80
2022-07-31T15:32:58.422Z,25.90
2022-07-31T15:35:27.162Z,26.00
2022-07-31T15:37:55.762Z,26.00
2022-07-31T15:40:25.950Z,25.80
2022-07-31T15:42:54.587Z,25.70
2022-07-31T15:45:23.157Z,25.60
2022-07-31T15:47:51.957Z,25.50
2022-07-31T15:50:21.259Z,25.50
2022-07-31T15:52:50.707Z,25.50
2022-07-31T15:55:19.663Z,25.60
2022-07-31T15:57:49.661Z,25.70
2022-07-31T16:00:19.052Z,25.80
2022-07-31T16:02:47.908Z,25.90
2022-07-31T16:05:21.633Z,25.60
2022-07-31T16:08:33.093Z,25.40
2022-07-31T16:10:55.089Z,25.50
2022-07-31T16:13:25.752Z,25.40
2022-07-31T16:15:54.343Z,25.30
2022-07-31T16:18:22.981Z,25.20
2022-07-31T16:20:51.587Z,25.10
2022-07-31T16:23:20.250Z,25.20
2022-07-31T16:25:48.882Z,25.20
2022-07-31T16:28:17.469Z,25.20
2022-07-31T16:30:47.626Z,25.10
2022-07-31T16:33:16.289Z,25.10
2022-07-31T16:35:44.883Z,25.10
2022-07-31T16:38:13.502Z,25.10
2022-07-31T16:40:42.234Z,25.20
2022-07-31T16:43:48.617Z,25.20
2022-07-31T16:46:00.909Z,25.20
2022-07-31T16:48:30.535Z,25.10
2022-07-31T16:50:59.138Z,25.00
2022-07-31T16:54:11.338Z,24.90
2022-07-31T16:56:18.142Z,24.80
2022-07-31T16:58:49.287Z,24.80
2022-07-31T17:01:59.502Z,24.80
2022-07-31T17:04:10.494Z,24.80
2022-07-31T17:06:39.058Z,24.80
2022-07-31T17:09:16.189Z,24.80
2022-07-31T17:11:49.425Z,24.90
2022-07-31T17:14:19.451Z,25.00
2022-07-31T17:16:50.801Z,25.30
2022-07-31T17:19:42.389Z,25.50
2022-07-31T17:22:11.436Z,25.70
2022-07-31T17:24:41.006Z,25.90
2022-07-31T17:27:10.212Z,26.00
2022-07-31T17:29:39.508Z,26.10
2022-07-31T17:32:11.325Z,26.20
2022-07-31T17:34:40.494Z,26.20
2022-07-31T17:37:09.486Z,26.20
2022-07-31T17:39:38.518Z,26.20
2022-07-31T17:42:09.466Z,26.10
2022-07-31T17:44:38.299Z,25.60
2022-07-31T17:47:10.355Z,25.00
2022-07-31T17:49:39.468Z,24.50
2022-07-31T17:52:08.396Z,24.10
2022-07-31T17:54:37.180Z,23.80
2022-07-31T17:57:05.989Z,23.60
2022-07-31T17:59:34.860Z,23.40
2022-07-31T18:02:04.540Z,23.20
2022-07-31T18:04:37.562Z,23.00
2022-07-31T18:07:07.619Z,22.70
2022-07-31T18:09:37.545Z,22.50
2022-07-31T18:12:08.963Z,22.40
2022-07-31T18:14:40.942Z,22.30
2022-07-31T18:17:09.475Z,22.30
2022-07-31T18:19:39.435Z,22.30
2022-07-31T18:22:08.276Z,22.10
2022-07-31T18:24:36.881Z,21.90
2022-07-31T18:27:05.696Z,21.80
2022-07-31T18:29:34.337Z,21.70
2022-07-31T18:32:03.269Z,21.60
2022-07-31T18:34:32.099Z,21.40
2022-07-31T18:37:02.060Z,21.20
2022-07-31T18:39:30.618Z,21.10
2022-07-31T18:41:59.495Z,20.90
2022-07-31T18:44:28.095Z,20.70
2022-07-31T18:46:56.977Z,20.50
2022-07-31T18:51:01.207Z,20.40
2022-07-31T18:52:15.496Z,20.20
2022-07-31T18:54:44.294Z,20.00
2022-07-31T18:57:13.188Z,19.90
2022-07-31T18:59:42.388Z,19.80
2022-07-31T19:02:12.235Z,19.70
2022-07-31T19:04:41.135Z,19.60
2022-07-31T19:07:10.142Z,19.50
2022-07-31T19:09:40.245Z,19.50
2022-07-31T19:12:10.130Z,19.30
2022-07-31T19:14:39.916Z,19.30
2022-07-31T19:17:08.645Z,19.20
2022-07-31T19:19:52.799Z,19.20
2022-07-31T19:22:24.245Z,19.10
2022-07-31T19:24:54.644Z,19.00
2022-07-31T19:27:48.484Z,19.00
2022-07-31T19:30:13.892Z,19.00
2022-07-31T19:32:42.821Z,19.00
2022-07-31T19:35:12.080Z,18.90
2022-07-31T19:37:41.032Z,18.80
2022-07-31T19:40:12.122Z,18.70
2022-07-31T19:42:40.685Z,18.60
2022-07-31T19:45:09.951Z,18.50
2022-07-31T19:47:38.701Z,18.50
2022-07-31T19:50:08.320Z,18.50
2022-07-31T19:52:37.280Z,18.50
2022-07-31T19:55:06.534Z,18.40
2022-07-31T19:57:37.862Z,18.40
2022-07-31T20:00:09.099Z,18.30
2022-07-31T20:02:38.044Z,18.30
2022-07-31T20:05:08.833Z,18.30
2022-07-31T20:07:38.651Z,18.30
2022-07-31T20:10:09.707Z,18.30
2022-07-31T20:12:40.838Z,18.20
2022-07-31T20:15:10.707Z,18.10
2022-07-31T20:17:39.592Z,18.00
2022-07-31T20:20:15.534Z,17.90
2022-07-31T20:22:44.752Z,17.80
2022-07-31T20:25:19.712Z,17.70
2022-07-31T20:27:51.279Z,17.70
2022-07-31T20:30:22.050Z,17.70
2022-07-31T20:32:51.508Z,17.70
2022-07-31T20:35:32.954Z,17.60
2022-07-31T20:38:15.542Z,17.50
2022-07-31T20:40:48.212Z,17.60
2022-07-31T20:43:25.025Z,17.50
2022-07-31T20:45:54.568Z,17.60
2022-07-31T20:48:24.703Z,17.70
2022-07-31T20:50:53.799Z,17.60
2022-07-31T20:53:23.228Z,17.50
2022-07-31T20:55:52.544Z,17.40
2022-07-31T20:58:25.094Z,17.40
2022-07-31T21:00:54.902Z,17.30
2022-07-31T21:03:24.232Z,17.10
2022-07-31T21:05:52.818Z,16.90
2022-07-31T21:08:22.748Z,16.80
2022-07-31T21:10:51.673Z,16.70
2022-07-31T21:13:20.668Z,16.70
2022-07-31T21:15:51.471Z,16.80
2022-07-31T21:18:22.119Z,16.80
2022-07-31T21:20:53.714Z,16.80
2022-07-31T21:23:23.664Z,16.80
2022-07-31T21:25:53.168Z,16.70
2022-07-31T21:28:22.696Z,16.60
2022-07-31T21:30:55.902Z,16.50
2022-07-31T21:33:26.601Z,16.60
2022-07-31T21:35:55.863Z,16.60
2022-07-31T21:38:25.765Z,16.50
2022-07-31T21:40:55.712Z,16.40
2022-07-31T21:43:25.411Z,16.30
2022-07-31T21:46:01.436Z,16.20
2022-07-31T21:48:31.979Z,16.00
2022-07-31T21:51:02.025Z,15.90
2022-07-31T21:53:30.757Z,15.90
2022-07-31T21:56:03.240Z,15.70
2022-07-31T21:58:32.208Z,15.70
2022-07-31T22:01:02.479Z,15.60
2022-07-31T22:03:31.380Z,15.70
2022-07-31T22:06:17.695Z,15.70
2022-07-31T22:08:46.568Z,15.70
2022-07-31T22:11:15.456Z,15.70
2022-07-31T22:13:44.277Z,15.70
2022-07-31T22:16:14.712Z,15.70
2022-07-31T22:18:44.528Z,15.80
2022-07-31T22:21:14.253Z,15.90
2022-07-31T22:23:43.804Z,15.80
2022-07-31T22:26:13.095Z,15.70
2022-07-31T22:28:42.809Z,15.60
2022-07-31T22:31:13.860Z,15.70
2022-07-31T22:33:42.996Z,15.70
2022-07-31T22:36:13.236Z,15.70
2022-07-31T22:38:44.460Z,15.60
2022-07-31T22:41:14.443Z,15.60
2022-07-31T22:44:13.413Z,15.60
2022-07-31T22:46:34.833Z,15.50
2022-07-31T22:49:04.299Z,15.50
2022-07-31T22:51:38.051Z,15.50
2022-07-31T22:54:07.315Z,15.50
2022-07-31T22:56:36.011Z,15.50
2022-07-31T22:59:05.069Z,15.50
2022-07-31T23:01:35.542Z,15.40
2022-07-31T23:04:04.433Z,15.40
2022-07-31T23:06:33.252Z,15.40
2022-07-31T23:09:03.029Z,15.30
2022-07-31T23:11:32.138Z,15.30
2022-07-31T23:14:01.058Z,15.20
2022-07-31T23:16:29.830Z,15.20
2022-07-31T23:19:00.233Z,15.30
2022-07-31T23:21:29.058Z,15.30
2022-07-31T23:23:57.953Z,15.30
2022-07-31T23:26:28.411Z,15.10
2022-07-31T23:28:58.026Z,15.10
2022-07-31T23:31:26.780Z,15.20
2022-07-31T23:33:55.893Z,15.20
2022-07-31T23:36:26.415Z,15.10
2022-07-31T23:38:55.147Z,15.10
2022-07-31T23:41:37.730Z,15.10
2022-07-31T23:44:10.530Z,15.10
2022-07-31T23:46:40.299Z,15.10
2022-07-31T23:49:10.319Z,15.00
2022-07-31T23:51:40.800Z,14.90
2022-07-31T23:54:09.493Z,15.00
2022-07-31T23:56:38.202Z,15.00
2022-07-31T23:59:07.171Z,15.00
